Pagrindinis puslapis
METAR-TAF:

METAR-TAF

Oro uostai :

Chinandega, Nikaragva

platuma: 12-38N, ilguma: 087-08W, Aukštis: 53 m

Dabartinis oras

Ataskaita buvo paskelbta 47 minutes, ne 23:00 UTC
Vėjas 4 kt iš Rytų
Temperatūra 24°C
Drėgmė 94%
Slėgis 1010 hPa
Matomumas: 6000 m
Mažai debesys ne aukštis 2200 ft, Liūtiniai kamuoliniai debesys.
Išsisklaidę debesys ne aukštis 2300 ft, aukštai iškilę kamuoliniai debesys.
perkūnija

METAR: MNCH 222300Z 09004KT 6000 TS FEW022CB SCT023TCU 24/23 Q1010 CBRA/NE/E/SE TCU/SW/W/NW

Laikas: 17:47 (23:47 UTC)


TAF: trūkstamas

Orai ataskaitas ir orų prognozės (METAR, TAF).

turimą stotys yra geltonos ir raudonos taškus žemėlapyje.

Perkelti pele per norėdami pamatyti stoties vardą.

Tada spustelėkite, norėdami matyti oro stebėjimo ir prognozės.

Norėdami pakeisti žemėlapį: spustelėkite ant žalios mygtukų su juodo kryžiaus žemyn,; žalią mygtuką su brūkšneliu, jei norite nutolinti; arba žalių rodyklių gretimoms žemėlapius.


METAR-TAF: